createdAt,value
2022-10-31T00:01:42.734Z,17.65
2022-10-31T00:04:13.781Z,18.23
2022-10-31T00:06:41.949Z,17.10
2022-10-31T00:09:11.738Z,16.73
2022-10-31T00:11:39.884Z,15.82
2022-10-31T00:14:08.090Z,14.98
2022-10-31T00:16:36.200Z,16.38
2022-10-31T00:19:07.696Z,16.05
2022-10-31T00:21:36.462Z,16.77
2022-10-31T00:24:04.995Z,16.20
2022-10-31T00:26:33.740Z,17.73
2022-10-31T00:29:02.271Z,16.85
2022-10-31T00:31:30.555Z,17.17
2022-10-31T00:33:59.639Z,16.17
2022-10-31T00:36:28.638Z,17.10
2022-10-31T00:38:56.915Z,16.27
2022-10-31T00:41:25.928Z,15.60
2022-10-31T00:43:54.091Z,16.65
2022-10-31T00:46:22.346Z,14.88
2022-10-31T00:48:52.407Z,16.55
2022-10-31T00:51:20.609Z,18.08
2022-10-31T00:53:50.037Z,17.98
2022-10-31T00:56:18.307Z,17.15
2022-10-31T00:58:46.749Z,17.55
2022-10-31T01:01:15.094Z,16.02
2022-10-31T01:03:43.606Z,17.25
2022-10-31T01:06:15.010Z,15.85
2022-10-31T01:08:43.529Z,14.93
2022-10-31T01:11:18.565Z,16.00
2022-10-31T01:13:47.436Z,16.55
2022-10-31T01:16:20.285Z,15.95
2022-10-31T01:18:48.498Z,17.17
2022-10-31T01:21:22.926Z,17.20
2022-10-31T01:23:53.808Z,17.00
2022-10-31T01:26:25.406Z,16.63
2022-10-31T01:29:07.804Z,16.25
2022-10-31T01:31:39.578Z,16.35
2022-10-31T01:34:07.863Z,16.90
2022-10-31T01:36:38.953Z,16.10
2022-10-31T01:39:12.972Z,17.00
2022-10-31T01:41:47.346Z,16.85
2022-10-31T01:44:15.558Z,17.27
2022-10-31T01:47:04.970Z,18.02
2022-10-31T01:49:44.428Z,18.10
2022-10-31T01:52:41.592Z,18.02
2022-10-31T01:55:30.028Z,17.45
2022-10-31T01:58:25.979Z,17.10
2022-10-31T02:01:05.080Z,17.23
2022-10-31T02:03:36.330Z,16.42
2022-10-31T02:06:08.803Z,16.20
2022-10-31T02:08:38.945Z,16.70
2022-10-31T02:11:08.447Z,16.88
2022-10-31T02:13:39.564Z,17.30
2022-10-31T02:16:11.409Z,14.73
2022-10-31T02:18:39.796Z,15.95
2022-10-31T02:21:45.279Z,18.25
2022-10-31T02:24:13.437Z,16.33
2022-10-31T02:27:00.156Z,16.92
2022-10-31T02:29:42.589Z,17.58
2022-10-31T02:32:29.335Z,15.98
2022-10-31T02:35:06.845Z,15.10
2022-10-31T02:38:19.893Z,15.95
2022-10-31T02:41:02.909Z,16.08
2022-10-31T02:44:16.858Z,15.50
2022-10-31T02:46:50.993Z,15.85
2022-10-31T02:49:49.379Z,16.27
2022-10-31T02:52:22.315Z,14.75
2022-10-31T02:54:51.662Z,15.18
2022-10-31T02:57:34.410Z,15.82
2022-10-31T03:00:06.203Z,14.82
2022-10-31T03:02:57.478Z,16.13
2022-10-31T03:05:46.455Z,14.38
2022-10-31T03:08:31.499Z,14.63
2022-10-31T03:11:08.344Z,16.95
2022-10-31T03:13:43.077Z,15.45
2022-10-31T03:16:20.766Z,15.65
2022-10-31T03:19:15.714Z,17.48
2022-10-31T03:21:56.933Z,16.08
2022-10-31T03:24:30.752Z,17.75
2022-10-31T03:27:02.451Z,15.57
2022-10-31T03:29:37.068Z,18.15
2022-10-31T03:32:28.802Z,16.52
2022-10-31T03:35:00.326Z,16.65
2022-10-31T03:37:33.726Z,17.27
2022-10-31T03:40:05.986Z,16.65
2022-10-31T03:42:41.586Z,18.45
2022-10-31T03:45:46.572Z,16.90
2022-10-31T03:48:17.250Z,17.35
2022-10-31T03:51:06.721Z,16.23
2022-10-31T03:53:46.519Z,16.27
2022-10-31T03:56:43.105Z,17.85
2022-10-31T03:59:21.931Z,16.58
2022-10-31T04:01:57.044Z,16.90
2022-10-31T04:04:26.585Z,18.52
2022-10-31T04:06:57.922Z,17.38
2022-10-31T04:09:28.728Z,17.75
2022-10-31T04:12:03.522Z,17.88
2022-10-31T04:15:02.956Z,19.48
2022-10-31T04:17:35.927Z,19.27
2022-10-31T04:20:07.830Z,18.52
2022-10-31T04:22:37.157Z,17.90
2022-10-31T04:25:05.715Z,18.85
2022-10-31T04:27:33.854Z,18.65
2022-10-31T04:30:02.096Z,18.30
2022-10-31T04:32:32.840Z,17.75
2022-10-31T04:35:00.985Z,17.90
2022-10-31T04:37:31.443Z,17.42
2022-10-31T04:39:59.636Z,16.80
2022-10-31T04:42:45.977Z,17.85
2022-10-31T04:45:16.853Z,18.27
2022-10-31T04:47:50.254Z,18.27
2022-10-31T04:50:18.551Z,16.50
2022-10-31T04:52:47.876Z,19.05
2022-10-31T04:55:20.084Z,16.13
2022-10-31T04:58:00.553Z,15.57
2022-10-31T05:00:30.006Z,16.75
2022-10-31T05:03:00.229Z,16.45
2022-10-31T05:05:32.291Z,16.15
2022-10-31T05:08:03.037Z,15.45
2022-10-31T05:10:32.914Z,15.98
2022-10-31T05:13:04.785Z,16.45
2022-10-31T05:16:11.695Z,16.20
2022-10-31T05:18:59.607Z,16.95
2022-10-31T05:21:47.901Z,16.90
2022-10-31T05:24:16.462Z,16.90
2022-10-31T05:26:49.862Z,15.53
2022-10-31T05:29:18.322Z,17.52
2022-10-31T05:31:46.422Z,16.67
2022-10-31T05:34:37.432Z,16.27
2022-10-31T05:37:38.029Z,17.63
2022-10-31T05:40:10.126Z,19.02
2022-10-31T05:42:43.930Z,17.52
2022-10-31T05:45:18.543Z,16.67
2022-10-31T05:48:00.963Z,18.05
2022-10-31T05:50:53.192Z,17.65
2022-10-31T05:53:22.247Z,15.98
2022-10-31T05:55:50.695Z,16.92
2022-10-31T05:58:21.620Z,17.70
2022-10-31T06:00:55.797Z,18.10
2022-10-31T06:03:24.626Z,17.88
2022-10-31T06:05:57.276Z,16.55
2022-10-31T06:08:39.010Z,19.05
2022-10-31T06:13:58.347Z,18.10
2022-10-31T06:16:33.951Z,20.05
2022-10-31T06:19:17.620Z,18.20
2022-10-31T06:21:45.748Z,16.00
2022-10-31T06:24:16.697Z,18.38
2022-10-31T06:27:05.742Z,17.67
2022-10-31T06:29:34.514Z,17.80
2022-10-31T06:32:23.274Z,16.92
2022-10-31T06:34:52.575Z,15.38
2022-10-31T06:37:20.661Z,15.50
2022-10-31T06:39:51.536Z,17.27
2022-10-31T06:42:20.363Z,15.18
2022-10-31T06:44:48.552Z,16.42
2022-10-31T06:47:41.388Z,21.42
2022-10-31T06:50:19.080Z,19.17
2022-10-31T06:52:52.997Z,18.73
2022-10-31T06:55:23.652Z,18.35
2022-10-31T06:58:02.816Z,19.63
2022-10-31T07:00:32.697Z,20.35
2022-10-31T07:03:10.783Z,19.15
2022-10-31T07:05:39.629Z,19.67
2022-10-31T07:08:10.933Z,20.13
2022-10-31T07:10:41.197Z,21.05
2022-10-31T07:13:13.710Z,19.88
2022-10-31T07:15:44.346Z,21.17
2022-10-31T07:18:13.593Z,18.90
2022-10-31T07:20:41.852Z,19.40
2022-10-31T07:23:14.459Z,17.80
2022-10-31T07:25:47.545Z,17.23
2022-10-31T07:28:24.718Z,15.95
2022-10-31T07:30:58.285Z,17.48
2022-10-31T07:33:29.692Z,16.65
2022-10-31T07:36:20.570Z,14.20
2022-10-31T07:38:52.589Z,16.17
2022-10-31T07:41:21.839Z,15.00
2022-10-31T07:43:50.375Z,15.27
2022-10-31T07:46:18.741Z,12.32
2022-10-31T07:49:05.397Z,12.68
2022-10-31T07:51:51.787Z,12.05
2022-10-31T07:54:38.612Z,12.07
2022-10-31T07:57:13.102Z,12.15
2022-10-31T07:59:41.259Z,12.82
2022-10-31T08:02:10.495Z,13.57
2022-10-31T08:04:44.423Z,13.48
2022-10-31T08:10:10.357Z,14.60
2022-10-31T08:12:38.547Z,14.60
2022-10-31T08:15:09.755Z,13.63
2022-10-31T08:17:39.229Z,13.93
2022-10-31T08:20:10.551Z,12.65
2022-10-31T08:22:58.359Z,12.40
2022-10-31T08:25:33.700Z,13.38
2022-10-31T08:28:06.905Z,12.77
2022-10-31T08:30:36.860Z,13.68
2022-10-31T08:33:34.420Z,12.15
2022-10-31T08:36:37.669Z,12.38
2022-10-31T08:39:16.113Z,11.10
2022-10-31T08:41:44.531Z,10.10
2022-10-31T08:44:14.780Z,12.38
2022-10-31T08:46:45.228Z,12.15
2022-10-31T08:49:13.525Z,12.23
2022-10-31T08:51:43.919Z,12.85
2022-10-31T08:54:12.121Z,12.30
2022-10-31T08:56:58.391Z,12.73
2022-10-31T08:59:40.764Z,13.15
2022-10-31T09:04:56.263Z,14.25
2022-10-31T09:07:24.501Z,13.95
2022-10-31T09:09:52.671Z,15.63
2022-10-31T09:12:21.683Z,14.57
2022-10-31T09:15:10.432Z,12.98
2022-10-31T09:18:02.073Z,14.73
2022-10-31T09:20:41.358Z,15.02
2022-10-31T09:23:17.163Z,14.57
2022-10-31T09:25:50.427Z,14.48
2022-10-31T09:28:37.455Z,15.98
2022-10-31T09:31:14.554Z,14.52
2022-10-31T09:33:59.544Z,13.95
2022-10-31T09:36:40.334Z,13.55
2022-10-31T09:39:12.711Z,14.30
2022-10-31T09:42:07.543Z,13.38
2022-10-31T09:45:03.545Z,13.95
2022-10-31T09:47:49.045Z,14.95
2022-10-31T09:50:57.527Z,17.10
2022-10-31T09:53:36.183Z,15.20
2022-10-31T09:56:10.432Z,17.60
2022-10-31T09:58:44.543Z,20.15
2022-10-31T10:01:22.732Z,18.17
2022-10-31T10:03:56.657Z,21.25
2022-10-31T10:06:53.913Z,22.83
2022-10-31T10:09:51.361Z,20.75
2022-10-31T10:13:08.248Z,22.00
2022-10-31T10:15:56.448Z,23.27
2022-10-31T10:18:44.717Z,25.98
2022-10-31T10:21:43.688Z,24.27
2022-10-31T10:24:20.972Z,24.70
2022-10-31T10:27:11.499Z,25.75
2022-10-31T10:29:53.243Z,25.33
2022-10-31T10:32:33.674Z,26.85
2022-10-31T10:35:11.209Z,26.20
2022-10-31T10:37:44.385Z,25.85
2022-10-31T10:40:18.969Z,26.02
2022-10-31T10:43:23.019Z,25.75
2022-10-31T10:48:46.398Z,24.20
2022-10-31T10:51:54.450Z,25.63
2022-10-31T10:54:47.550Z,26.75
2022-10-31T10:57:51.084Z,25.42
2022-10-31T11:00:25.476Z,27.17
2022-10-31T11:02:54.340Z,27.30
2022-10-31T11:05:47.227Z,26.80
2022-10-31T11:08:28.543Z,26.52
2022-10-31T11:11:05.249Z,23.63
2022-10-31T11:13:35.347Z,27.73
2022-10-31T11:16:34.465Z,26.58
2022-10-31T11:19:21.296Z,26.77
2022-10-31T11:21:54.319Z,25.83
2022-10-31T11:24:28.506Z,25.08
2022-10-31T11:27:16.469Z,27.60
2022-10-31T11:29:44.744Z,25.27
2022-10-31T11:32:25.652Z,27.80
2022-10-31T11:34:57.291Z,27.55
2022-10-31T11:37:28.721Z,26.17
2022-10-31T11:40:03.110Z,28.83
2022-10-31T11:42:39.424Z,28.73
2022-10-31T11:45:17.405Z,29.25
2022-10-31T11:47:51.417Z,26.65
2022-10-31T11:50:33.950Z,25.63
2022-10-31T11:53:03.446Z,28.88
2022-10-31T11:55:33.257Z,28.25
2022-10-31T11:58:01.768Z,26.33
2022-10-31T12:00:33.563Z,27.73
2022-10-31T12:03:23.170Z,28.75
2022-10-31T12:06:19.679Z,28.73
2022-10-31T12:11:28.190Z,29.50
2022-10-31T12:14:15.152Z,28.70
2022-10-31T12:16:46.334Z,27.48
2022-10-31T12:19:44.495Z,25.70
2022-10-31T12:22:53.454Z,27.23
2022-10-31T12:26:04.204Z,26.30
2022-10-31T12:28:49.912Z,25.58
2022-10-31T12:31:39.263Z,25.52
2022-10-31T12:34:31.219Z,23.55
2022-10-31T12:37:09.842Z,24.30
2022-10-31T12:39:59.041Z,26.27
2022-10-31T12:42:39.485Z,25.77
2022-10-31T12:45:36.653Z,26.38
2022-10-31T12:48:15.230Z,24.92
2022-10-31T12:51:06.729Z,25.20
2022-10-31T12:53:41.107Z,23.30
2022-10-31T12:56:18.138Z,25.17
2022-10-31T12:58:53.565Z,23.50
2022-10-31T13:01:28.123Z,28.08
2022-10-31T13:04:15.192Z,27.33
2022-10-31T13:07:01.490Z,26.00
2022-10-31T13:10:03.807Z,26.55
2022-10-31T13:12:37.418Z,24.70
2022-10-31T13:15:17.531Z,26.67
2022-10-31T13:17:59.048Z,26.85
2022-10-31T13:20:32.897Z,26.83
2022-10-31T13:23:49.031Z,24.45
2022-10-31T13:26:21.541Z,24.50
2022-10-31T13:29:02.441Z,25.52
2022-10-31T13:31:30.821Z,25.00
2022-10-31T13:34:22.274Z,27.13
2022-10-31T13:37:08.289Z,27.38
2022-10-31T13:40:18.699Z,27.50
2022-10-31T13:43:11.965Z,25.70
2022-10-31T13:45:51.216Z,28.40
2022-10-31T13:48:34.876Z,25.35
2022-10-31T13:51:12.739Z,28.50
2022-10-31T13:53:58.060Z,27.30
2022-10-31T13:56:34.524Z,28.35
2022-10-31T13:59:11.505Z,31.02
2022-10-31T14:01:58.444Z,29.23
2022-10-31T14:04:40.355Z,27.30
2022-10-31T14:07:14.986Z,27.73
2022-10-31T14:10:03.513Z,28.23
2022-10-31T14:12:31.771Z,27.52
2022-10-31T14:15:27.666Z,26.83
2022-10-31T14:18:06.499Z,26.75
2022-10-31T14:20:41.774Z,28.38
2022-10-31T14:23:38.630Z,28.30
2022-10-31T14:26:21.936Z,29.52
2022-10-31T14:31:40.977Z,26.98
2022-10-31T14:34:26.789Z,29.20
2022-10-31T14:37:03.776Z,27.90
2022-10-31T14:40:06.653Z,27.85
2022-10-31T14:43:01.720Z,26.02
2022-10-31T14:45:44.915Z,27.58
2022-10-31T14:48:19.052Z,25.95
2022-10-31T14:50:59.499Z,27.13
2022-10-31T14:53:29.959Z,28.75
2022-10-31T14:56:02.789Z,27.35
2022-10-31T14:58:43.781Z,25.08
2022-10-31T15:01:36.661Z,25.73
2022-10-31T15:04:26.602Z,24.80
2022-10-31T15:06:59.815Z,24.25
2022-10-31T15:09:32.037Z,23.65
2022-10-31T15:12:21.410Z,24.20
2022-10-31T15:14:49.681Z,23.60
2022-10-31T15:17:18.219Z,23.20
2022-10-31T15:19:46.765Z,22.80
2022-10-31T15:22:20.087Z,22.58
2022-10-31T15:27:18.718Z,22.08
2022-10-31T15:30:17.251Z,22.95
2022-10-31T15:32:57.226Z,23.38
2022-10-31T15:35:32.850Z,23.42
2022-10-31T15:38:02.792Z,25.45
2022-10-31T15:40:31.304Z,23.15
2022-10-31T15:43:04.881Z,22.58
2022-10-31T15:45:33.393Z,21.02
2022-10-31T15:48:05.607Z,22.10
2022-10-31T15:50:36.804Z,21.80
2022-10-31T15:53:07.183Z,23.80
2022-10-31T15:55:47.438Z,23.70
2022-10-31T15:58:18.250Z,22.08
2022-10-31T16:00:57.531Z,24.95
2022-10-31T16:03:29.422Z,21.67
2022-10-31T16:06:05.637Z,24.38
2022-10-31T16:08:38.202Z,23.67
2022-10-31T16:11:13.434Z,21.45
2022-10-31T16:13:56.977Z,22.27
2022-10-31T16:19:21.531Z,24.45
2022-10-31T16:21:56.826Z,24.05
2022-10-31T16:24:32.020Z,24.05
2022-10-31T16:27:06.035Z,24.63
2022-10-31T16:29:44.551Z,24.80
2022-10-31T16:32:31.639Z,24.58
2022-10-31T16:35:10.233Z,23.13
2022-10-31T16:37:42.364Z,23.17
2022-10-31T16:40:16.356Z,23.25
2022-10-31T16:42:45.821Z,23.10
2022-10-31T16:45:23.417Z,23.92
2022-10-31T16:47:52.487Z,23.30
2022-10-31T16:50:26.650Z,23.60
2022-10-31T16:53:14.979Z,22.20
2022-10-31T16:56:04.773Z,24.75
2022-10-31T16:58:35.431Z,24.92
2022-10-31T17:01:06.969Z,23.85
2022-10-31T17:03:36.269Z,24.65
2022-10-31T17:06:04.810Z,25.42
2022-10-31T17:08:34.050Z,24.77
2022-10-31T17:11:02.993Z,25.17
2022-10-31T17:13:34.339Z,24.65
2022-10-31T17:16:03.348Z,26.30
2022-10-31T17:18:31.706Z,26.08
2022-10-31T17:21:06.100Z,29.20
2022-10-31T17:23:34.461Z,35.22
2022-10-31T17:26:02.688Z,30.65
2022-10-31T17:28:30.908Z,31.58
2022-10-31T17:30:59.495Z,29.30
2022-10-31T17:33:27.955Z,30.30
2022-10-31T17:35:56.193Z,29.10
2022-10-31T17:38:24.446Z,28.00
2022-10-31T17:40:55.500Z,29.95
2022-10-31T17:43:27.235Z,28.50
2022-10-31T17:45:55.424Z,28.83
2022-10-31T17:48:23.513Z,29.40
2022-10-31T17:50:51.777Z,29.15
2022-10-31T17:53:22.858Z,29.40
2022-10-31T17:55:51.062Z,29.65
2022-10-31T17:58:19.162Z,28.00
2022-10-31T18:00:50.440Z,27.88
2022-10-31T18:03:19.689Z,29.60
2022-10-31T18:05:58.607Z,28.15
2022-10-31T18:08:29.640Z,26.20
2022-10-31T18:11:00.939Z,27.02
2022-10-31T18:13:29.507Z,29.50
2022-10-31T18:15:57.982Z,27.83
2022-10-31T18:18:29.100Z,28.60
2022-10-31T18:21:00.338Z,28.02
2022-10-31T18:23:28.497Z,27.48
2022-10-31T18:25:56.677Z,29.65
2022-10-31T18:28:24.975Z,27.55
2022-10-31T18:30:53.337Z,29.00
2022-10-31T18:33:21.522Z,30.00
2022-10-31T18:35:49.662Z,29.00
2022-10-31T18:38:17.832Z,31.90
2022-10-31T18:40:45.992Z,31.38
2022-10-31T18:43:14.408Z,29.40
2022-10-31T18:45:47.943Z,27.58
2022-10-31T18:48:17.504Z,31.08
2022-10-31T18:50:45.995Z,28.70
2022-10-31T18:53:14.310Z,29.30
2022-10-31T18:55:45.712Z,29.88
2022-10-31T18:58:17.822Z,30.08
2022-10-31T19:00:46.365Z,27.48
2022-10-31T19:03:15.235Z,30.00
2022-10-31T19:05:44.231Z,28.65
2022-10-31T19:08:12.441Z,29.73
2022-10-31T19:10:41.022Z,28.98
2022-10-31T19:13:11.070Z,28.02
2022-10-31T19:15:39.277Z,30.38
2022-10-31T19:18:07.563Z,32.15
2022-10-31T19:20:37.937Z,29.58
2022-10-31T19:23:06.296Z,29.05
2022-10-31T19:25:34.515Z,31.00
2022-10-31T19:28:02.893Z,29.23
2022-10-31T19:30:31.305Z,28.90
2022-10-31T19:33:02.419Z,30.30
2022-10-31T19:35:30.572Z,26.95
2022-10-31T19:38:01.730Z,29.58
2022-10-31T19:40:30.070Z,28.95
2022-10-31T19:42:59.667Z,30.55
2022-10-31T19:45:27.821Z,31.88
2022-10-31T19:47:55.971Z,34.65
2022-10-31T19:50:24.198Z,35.55
2022-10-31T19:52:52.362Z,34.00
2022-10-31T19:55:20.483Z,33.25
2022-10-31T19:58:01.319Z,31.83
2022-10-31T20:00:30.366Z,32.70
2022-10-31T20:03:00.275Z,33.10
2022-10-31T20:05:28.635Z,30.58
2022-10-31T20:07:57.594Z,30.42
2022-10-31T20:10:25.870Z,31.98
2022-10-31T20:12:56.459Z,40.88
2022-10-31T20:15:24.601Z,42.28
2022-10-31T20:17:55.712Z,41.42
2022-10-31T20:20:24.168Z,43.38
2022-10-31T20:22:52.263Z,42.08
2022-10-31T20:25:20.564Z,40.13
2022-10-31T20:27:48.730Z,38.78
2022-10-31T20:30:16.876Z,39.17
2022-10-31T20:32:49.799Z,38.15
2022-10-31T20:35:18.764Z,39.03
2022-10-31T20:37:46.911Z,41.58
2022-10-31T20:40:15.078Z,41.75
2022-10-31T20:42:43.207Z,40.58
2022-10-31T20:45:11.579Z,41.28
2022-10-31T20:47:39.704Z,39.35
2022-10-31T20:50:08.303Z,41.38
2022-10-31T20:52:40.598Z,41.80
2022-10-31T20:55:09.146Z,38.20
2022-10-31T20:57:37.475Z,38.28
2022-10-31T21:00:12.374Z,36.05
2022-10-31T21:02:41.936Z,34.75
2022-10-31T21:05:12.036Z,33.78
2022-10-31T21:07:41.195Z,35.55
2022-10-31T21:10:15.845Z,36.53
2022-10-31T21:12:46.971Z,34.15
2022-10-31T21:15:15.614Z,35.13
2022-10-31T21:17:45.693Z,34.30
2022-10-31T21:20:14.251Z,31.98
2022-10-31T21:22:42.423Z,33.03
2022-10-31T21:25:10.587Z,31.55
2022-10-31T21:27:38.840Z,29.27
2022-10-31T21:30:07.352Z,32.97
2022-10-31T21:32:35.513Z,31.00
2022-10-31T21:35:03.998Z,31.52
2022-10-31T21:37:32.260Z,30.98
2022-10-31T21:40:03.869Z,32.28
2022-10-31T21:42:32.037Z,30.10
2022-10-31T21:45:00.146Z,31.40
2022-10-31T21:47:28.285Z,30.13
2022-10-31T21:49:56.463Z,30.48
2022-10-31T21:52:24.587Z,30.40
2022-10-31T21:54:52.736Z,32.88
2022-10-31T21:59:50.171Z,33.42
2022-10-31T22:02:18.355Z,32.53
2022-10-31T22:04:48.659Z,33.50
2022-10-31T22:07:17.818Z,32.65
2022-10-31T22:09:51.276Z,32.40
2022-10-31T22:14:47.369Z,30.63
2022-10-31T22:17:15.472Z,30.58
2022-10-31T22:19:43.835Z,31.30
2022-10-31T22:22:13.211Z,30.67
2022-10-31T22:24:41.396Z,31.83
2022-10-31T22:27:09.522Z,32.60
2022-10-31T22:29:37.779Z,30.77
2022-10-31T22:32:06.122Z,29.90
2022-10-31T22:34:37.053Z,31.05
2022-10-31T22:37:05.142Z,31.20
2022-10-31T22:39:33.546Z,31.77
2022-10-31T22:42:03.698Z,29.73
2022-10-31T22:44:31.766Z,29.27
2022-10-31T22:46:59.989Z,29.65
2022-10-31T22:49:28.143Z,30.52
2022-10-31T22:51:59.739Z,30.85
2022-10-31T22:54:27.979Z,29.77
2022-10-31T22:56:56.055Z,31.80
2022-10-31T22:59:24.232Z,30.00
2022-10-31T23:01:54.409Z,31.60
2022-10-31T23:04:24.552Z,31.40
2022-10-31T23:06:52.707Z,32.63
2022-10-31T23:09:20.912Z,32.45
2022-10-31T23:11:49.086Z,29.95
2022-10-31T23:14:20.785Z,31.10
2022-10-31T23:16:50.662Z,33.85
2022-10-31T23:19:20.507Z,30.75
2022-10-31T23:21:57.292Z,31.55
2022-10-31T23:24:37.770Z,32.50
2022-10-31T23:27:21.262Z,34.30
2022-10-31T23:29:54.416Z,31.17
2022-10-31T23:32:28.678Z,35.35
2022-10-31T23:35:06.804Z,32.15
2022-10-31T23:37:37.087Z,32.83
2022-10-31T23:40:08.172Z,31.80
2022-10-31T23:42:36.353Z,33.17
2022-10-31T23:45:04.820Z,33.78
2022-10-31T23:47:33.011Z,33.63
2022-10-31T23:50:01.159Z,35.00
2022-10-31T23:52:29.304Z,33.60
2022-10-31T23:54:59.736Z,34.47
2022-10-31T23:57:27.932Z,33.28
2022-10-31T23:59:56.078Z,34.30
